createdAt,value
2023-01-29T00:10:58.688Z,99270
2023-01-29T00:22:58.759Z,99260
2023-01-29T00:34:58.706Z,99240
2023-01-29T00:46:58.741Z,99240
2023-01-29T00:58:58.736Z,99210
2023-01-29T01:10:58.740Z,99200
2023-01-29T01:22:58.728Z,99170
2023-01-29T01:34:58.692Z,99190
2023-01-29T01:46:58.616Z,99170
2023-01-29T01:58:58.634Z,99180
2023-01-29T02:10:58.624Z,99200
2023-01-29T02:22:58.688Z,99200
2023-01-29T02:34:58.618Z,99180
2023-01-29T02:46:58.766Z,99170
2023-01-29T02:58:58.717Z,99170
2023-01-29T03:10:58.615Z,99170
2023-01-29T03:22:58.634Z,99170
2023-01-29T03:34:58.620Z,99170
2023-01-29T03:46:58.637Z,99190
2023-01-29T03:58:58.620Z,99190
2023-01-29T04:10:58.733Z,99200
2023-01-29T04:22:58.738Z,99170
2023-01-29T04:34:58.617Z,99150
2023-01-29T04:46:58.703Z,99120
2023-01-29T04:58:58.617Z,99130
2023-01-29T05:10:58.731Z,99150
2023-01-29T05:22:58.727Z,99150
2023-01-29T05:34:58.645Z,99150
2023-01-29T05:46:58.614Z,99160
2023-01-29T05:58:58.697Z,99160
2023-01-29T06:10:58.726Z,99130
2023-01-29T06:22:58.708Z,99100
2023-01-29T06:34:58.636Z,99140
2023-01-29T06:46:58.624Z,99150
2023-01-29T06:58:58.624Z,99150
2023-01-29T07:10:58.617Z,99160
2023-01-29T07:22:58.730Z,99170
2023-01-29T07:34:58.713Z,99180
2023-01-29T07:46:58.743Z,99190
2023-01-29T07:58:58.694Z,99200
2023-01-29T08:10:58.737Z,99190
2023-01-29T08:22:58.707Z,99200
2023-01-29T08:34:58.615Z,99180
2023-01-29T08:46:58.705Z,99190
2023-01-29T08:58:59.254Z,99210
2023-01-29T09:10:58.643Z,99190
2023-01-29T09:22:58.614Z,99240
2023-01-29T09:34:58.637Z,99230
2023-01-29T09:46:58.854Z,99250
2023-01-29T09:59:00.634Z,99210
2023-01-29T10:10:58.618Z,99180
2023-01-29T10:22:58.614Z,99180
2023-01-29T10:34:58.619Z,99150
2023-01-29T10:46:58.777Z,99170
2023-01-29T10:58:58.625Z,99140
2023-01-29T11:10:58.614Z,99130
2023-01-29T11:22:58.637Z,99090
2023-01-29T11:34:58.639Z,99100
2023-01-29T11:46:58.682Z,99100
2023-01-29T11:58:58.700Z,99040
2023-01-29T12:10:58.615Z,99070
2023-01-29T12:22:58.627Z,99000
2023-01-29T12:34:58.617Z,98980
2023-01-29T12:46:58.742Z,99000
2023-01-29T12:58:58.734Z,98980
2023-01-29T13:10:58.716Z,99020
2023-01-29T13:22:58.713Z,98960
2023-01-29T13:34:58.615Z,98980
2023-01-29T13:46:58.618Z,98970
2023-01-29T13:58:58.776Z,98970
2023-01-29T14:10:58.724Z,98990
2023-01-29T14:22:58.621Z,98950
2023-01-29T14:34:58.726Z,98940
2023-01-29T14:46:58.743Z,98920
2023-01-29T14:58:58.703Z,98910
2023-01-29T15:10:58.697Z,98890
2023-01-29T15:22:58.624Z,98880
2023-01-29T15:34:58.672Z,98890
2023-01-29T15:46:58.811Z,98880
2023-01-29T15:58:58.696Z,98880
2023-01-29T16:10:58.621Z,98880
2023-01-29T16:22:58.727Z,98890
2023-01-29T16:34:58.712Z,98890
2023-01-29T16:46:58.733Z,98880
2023-01-29T16:58:58.743Z,98880
2023-01-29T17:10:58.614Z,98880
2023-01-29T17:22:58.622Z,98870
2023-01-29T17:35:00.471Z,98860
2023-01-29T17:46:58.739Z,98860
2023-01-29T17:58:58.743Z,98860
2023-01-29T18:10:58.616Z,98840
2023-01-29T18:22:58.720Z,98820
2023-01-29T18:34:58.721Z,98820
2023-01-29T18:46:58.626Z,98790
2023-01-29T18:58:58.761Z,98780
2023-01-29T19:10:58.636Z,98780
2023-01-29T19:22:58.627Z,98760
2023-01-29T19:34:58.624Z,98760
2023-01-29T19:46:58.707Z,98740
2023-01-29T19:58:58.617Z,98710
2023-01-29T20:10:58.702Z,98720
2023-01-29T20:22:58.718Z,98690
2023-01-29T20:34:58.637Z,98710
2023-01-29T20:47:01.428Z,98680
2023-01-29T20:58:58.619Z,98660
2023-01-29T21:10:58.672Z,98620
2023-01-29T21:22:59.381Z,98570
2023-01-29T21:34:58.620Z,98560
2023-01-29T21:46:58.626Z,98560
2023-01-29T21:58:58.676Z,98570
2023-01-29T22:10:58.722Z,98550
2023-01-29T22:22:58.633Z,98550
2023-01-29T22:34:58.737Z,98540
2023-01-29T22:46:59.632Z,98540
2023-01-29T22:58:58.613Z,98530
2023-01-29T23:10:58.739Z,98550
2023-01-29T23:22:58.623Z,98520
2023-01-29T23:34:58.677Z,98510
2023-01-29T23:46:58.773Z,98500
2023-01-29T23:58:58.628Z,98460
